• Join FlightAware (Why Join?)
  • Login
  • US Flag 
06:24AM EDT


 

Airport Tracker/Info


-or-


 

Live Flight TrackerFlight Track Log ✈ N904ER ✈ 30-Oct-2013 ✈ KPIE - KDAB

Flight Track Log - Related Links

Times and Time Zones

All times are in EDT time to prevent confusion due to time zone crossing. See the N904ER flight status page for this flight to view local times or setup timezone preferences in your user account.

Time Position Orientation Groundspeed Altitude Reporting Facility
EDT Latitude Longitude Course Direction KTS MPH feet Rate Location/Type
08:20PM 27.9167 -82.7500 270° West 130 150 1,600  Level Tampa TRACON
08:21PM 27.9167 -82.8000 270° West 141 162 2,100 600 Climbing Tampa TRACON
08:21PM 27.9500 -82.8167 336° Northwest 128 147 2,700 480 Climbing Tampa TRACON
08:22PM 27.9667 -82.8000 41° Northeast 120 138 3,100 120 Climbing Tampa TRACON
08:23PM 27.9667 -82.7667 90° East 124 143 3,000 -60 Descending Tampa TRACON
08:24PM 27.9667 -82.7167 90° East 122 140 3,000  Level Tampa TRACON
08:25PM 27.9833 -82.6833 60° Northeast 125 144 3,000  Level Tampa TRACON
08:26PM 27.9667 -82.6500 120° Southeast 122 140 3,000  Level Tampa TRACON
08:27PM 27.9667 -82.6167 90° East 124 143 3,000  Level Tampa TRACON
08:28PM 27.9667 -82.5667 90° East 123 142 3,000  Level Tampa TRACON
08:29PM 27.9667 -82.5333 90° East 124 143 3,000 120 Level Tampa TRACON
08:31PM 27.9833 -82.5000 60° Northeast 117 135 3,300 420 Climbing Tampa TRACON
08:32PM 28.0000 -82.4667 60° Northeast 99 114 4,100 840 Climbing Tampa TRACON
08:33PM 28.0167 -82.4500 41° Northeast 110 127 5,000 900 Climbing Tampa TRACON
08:33PM 28.0333 -82.4333 41° Northeast 107 123 5,600 900 Climbing Tampa TRACON
08:34PM 28.0500 -82.4000 60° Northeast 104 120 6,500 660 Climbing Tampa TRACON
08:35PM 28.0833 -82.3667 41° Northeast 120 138 7,000 240 Climbing Tampa TRACON
08:36PM 28.1000 -82.3500 41° Northeast 154 177 7,000  Level Tampa TRACON
08:38PM 28.1500 -82.3000 41° Northeast 143 165 7,000  Level Tampa TRACON
08:39PM 28.1667 -82.2667 60° Northeast 141 162 7,000  Level Tampa TRACON
08:39PM 28.1833 -82.2333 60° Northeast 141 162 7,000  Level Tampa TRACON
08:42PM 28.2500 -82.1667 41° Northeast 141 162 7,000  Level Orlando TRACON
08:43PM 28.2833 -82.1333 41° Northeast 140 161 7,000  Level Orlando TRACON
08:44PM 28.3000 -82.1000 60° Northeast 139 160 7,000  Level Orlando TRACON
08:44PM 28.3333 -82.0833 24° Northeast 139 160 7,000  Level Orlando TRACON
08:45PM 28.3500 -82.0500 60° Northeast 138 159 7,000  Level Orlando TRACON
08:46PM 28.3833 -82.0167 41° Northeast 138 159 7,000  Level Orlando TRACON
08:47PM 28.4000 -81.9833 60° Northeast 138 159 7,000 -180 Level Orlando TRACON
08:48PM 28.4333 -81.9500 41° Northeast 145 167 6,700 -420 Descending Orlando TRACON
08:49PM 28.4667 -81.9167 41° Northeast 153 176 6,200 -600 Descending Orlando TRACON
08:50PM 28.5000 -81.8833 41° Northeast 154 177 5,600 -600 Descending Orlando TRACON
08:51PM 28.5167 -81.8500 60° Northeast 154 177 5,100 -360 Descending Orlando TRACON
08:52PM 28.5500 -81.8167 41° Northeast 148 170 4,900 -120 Descending Orlando TRACON
08:53PM 28.5833 -81.7833 41° Northeast 132 152 4,900  Level Orlando TRACON
08:54PM 28.6000 -81.7500 60° Northeast 131 151 4,900  Level Orlando TRACON
08:55PM 28.6333 -81.7167 41° Northeast 131 151 4,900 -120 Level Orlando TRACON
08:56PM 28.6500 -81.6833 60° Northeast 133 153 4,700 -300 Descending Orlando TRACON
08:57PM 28.6833 -81.6667 24° Northeast 146 168 4,300 -480 Descending Orlando TRACON
08:58PM 28.7167 -81.6333 41° Northeast 147 169 3,800 -540 Descending Orlando TRACON
08:59PM 28.7333 -81.5833 69° East 148 170 3,300 -480 Descending Orlando TRACON
09:00PM 28.7667 -81.5500 41° Northeast 145 167 2,900 -240 Descending Orlando TRACON
09:01PM 28.8000 -81.5333 24° Northeast 133 153 2,900  Level Orlando TRACON
09:02PM 28.8167 -81.5000 60° Northeast 124 143 2,900  Level Orlando TRACON
09:04PM 28.8514 -81.4536 49° Northeast 125 144 2,900  Level Jacksonville Center
09:05PM 28.8761 -81.4272 43° Northeast 125 144 2,900  Level Jacksonville Center
09:06PM 28.8989 -81.4008 45° Northeast 124 143 2,900  Level Jacksonville Center
09:07PM 28.9214 -81.3697 50° Northeast 124 143 2,900  Level Jacksonville Center
09:08PM 28.9461 -81.3408 46° Northeast 125 144 2,900  Level Jacksonville Center
09:09PM 28.9603 -81.3097 63° Northeast 121 139 3,000  Climbing Jacksonville Center
09:10PM 28.9642 -81.2717 83° East 118 136 3,000  Level Jacksonville Center
09:11PM 28.9697 -81.2314 81° East 119 137 3,000  Level Jacksonville Center
09:12PM 28.9756 -81.1931 80° East 119 137 3,000  Level Jacksonville Center
09:13PM 28.9814 -81.1550 80° East 121 139 3,000  Level Jacksonville Center
09:14PM 28.9892 -81.1122 78° East 120 138 3,000  Level Jacksonville Center
09:15PM 28.9928 -81.0742 84° East 121 139 3,000  Level Jacksonville Center
09:16PM 28.9964 -81.0386 83° East 121 139 3,000  Level Jacksonville Center
09:17PM 29.0042 -81.0006 77° East 121 139 3,000 -180 Level Jacksonville Center
09:18PM 29.0269 -80.9808 37° Northeast 145 167 2,700 -600 Descending Jacksonville Center
09:19PM 29.0647 -81.0039 332° Northwest 161 185 1,900 -600 Descending Jacksonville Center
09:20PM 29.1025 -81.0175 343° North 122 140 1,500 -420 Descending Jacksonville Center
09:21PM 29.1297 -81.0314 336° Northwest 104 120 1,100 -600 Descending Jacksonville Center
09:22PM 29.1572 -81.0428 340° North 112 129 400 -720 Descending Jacksonville Center
09:25PM 29.1667 -81.0500 336° Northwest  Level FlightAware Approximate
09:32PM 29.1799 -81.0581 336° Northwest  Level Estimated
09:33PM 29.1799 -81.0581 336° Northwest  Level Estimated